Time;durP1;ratioP1;P1;durP2;ratioP2;P2;SDS_P1;SDS_P2;PMS_P1;PMS_P2;Temp;Humidity;BMP_temperature;BMP_pressure;BME280_temperature;BME280_humidity;BME280_pressure;Samples;Min_cycle;Max_cycle;Signal;HPM_P1;HPM_P2
2022/12/06 00:01:28;;;;;;;37.75;25.45;;;3.80;94.70;;;;;;5010341;28;20877;-74
2022/12/06 00:03:56;;;;;;;38.15;24.65;;;3.80;95.10;;;;;;5012556;28;20523;-73
2022/12/06 00:06:24;;;;;;;39.13;25.77;;;3.80;96.20;;;;;;5012832;28;20925;-74
2022/12/06 00:08:50;;;;;;;40.05;26.70;;;3.90;95.10;;;;;;5013123;28;20475;-74
2022/12/06 00:11:21;;;;;;;41.00;24.70;;;3.90;94.20;;;;;;5012573;28;20478;-73
2022/12/06 00:13:51;;;;;;;36.05;24.30;;;3.80;93.30;;;;;;5013624;28;20691;-75
2022/12/06 00:16:17;;;;;;;37.05;24.23;;;3.70;93.90;;;;;;5013267;28;20394;-75
2022/12/06 00:18:44;;;;;;;35.63;24.30;;;3.70;94.60;;;;;;5013343;28;20805;-76
2022/12/06 00:21:11;;;;;;;36.53;23.73;;;3.70;94.80;;;;;;5011629;28;20403;-75
2022/12/06 00:23:52;;;;;;;37.97;24.77;;;3.70;94.80;;;;;;5013157;28;20471;-75
2022/12/06 00:26:19;;;;;;;37.20;24.25;;;3.80;95.00;;;;;;5012866;28;20941;-74
2022/12/06 00:28:45;;;;;;;35.70;24.95;;;3.80;94.80;;;;;;5012360;28;20447;-74
2022/12/06 00:31:16;;;;;;;37.15;24.45;;;3.80;93.90;;;;;;5011831;28;21113;-74
2022/12/06 00:33:42;;;;;;;34.42;23.15;;;3.90;94.00;;;;;;5012440;28;20392;-73
2022/12/06 00:36:16;;;;;;;43.97;25.23;;;3.90;93.50;;;;;;5012969;28;20491;-73
2022/12/06 00:38:42;;;;;;;38.65;24.30;;;3.90;93.30;;;;;;5012451;28;20413;-74
2022/12/06 00:41:12;;;;;;;34.97;23.88;;;3.90;92.80;;;;;;5012154;28;20405;-74
2022/12/06 00:43:39;;;;;;;36.47;24.70;;;3.90;93.80;;;;;;5010948;28;20403;-75
2022/12/06 00:46:07;;;;;;;39.77;24.60;;;3.90;94.40;;;;;;5012637;28;20491;-75
2022/12/06 00:48:32;;;;;;;38.38;25.05;;;3.90;95.50;;;;;;5012739;28;20425;-73
2022/12/06 00:50:58;;;;;;;38.70;25.40;;;4.00;95.70;;;;;;5012379;28;20388;-74
2022/12/06 00:53:24;;;;;;;41.73;25.37;;;4.00;95.40;;;;;;5013042;28;20451;-74
2022/12/06 00:55:50;;;;;;;37.40;23.10;;;3.90;95.30;;;;;;5012481;28;20381;-74
2022/12/06 00:58:15;;;;;;;40.97;25.90;;;4.00;95.90;;;;;;5011702;28;20393;-74
2022/12/06 01:00:41;;;;;;;45.72;24.40;;;4.00;96.70;;;;;;5010359;28;20462;-75
2022/12/06 01:03:08;;;;;;;41.87;23.20;;;4.00;96.80;;;;;;5011343;28;20472;-74
2022/12/06 01:05:39;;;;;;;45.08;25.35;;;4.00;97.30;;;;;;5013985;28;20850;-74
2022/12/06 01:08:05;;;;;;;43.23;25.30;;;3.90;97.50;;;;;;5016186;28;20515;-74
2022/12/06 01:10:31;;;;;;;38.40;23.90;;;3.90;98.40;;;;;;5017704;28;20393;-74
2022/12/06 01:12:56;;;;;;;37.28;22.50;;;4.00;99.10;;;;;;5011061;28;20447;-74
2022/12/06 01:15:22;;;;;;;38.35;24.60;;;4.00;98.80;;;;;;5011493;28;20417;-74
2022/12/06 01:17:47;;;;;;;36.60;22.48;;;4.10;97.00;;;;;;5011400;28;20901;-74
2022/12/06 01:20:13;;;;;;;34.28;22.27;;;4.10;97.10;;;;;;5011252;28;20972;-74
2022/12/06 01:22:38;;;;;;;43.72;24.23;;;4.40;96.10;;;;;;5010858;28;20455;-74
2022/12/06 01:25:04;;;;;;;39.22;23.25;;;4.40;90.10;;;;;;5011072;28;20404;-73
2022/12/06 01:27:30;;;;;;;36.50;22.92;;;4.30;91.40;;;;;;5011445;28;20404;-73
2022/12/06 01:29:55;;;;;;;35.63;23.57;;;4.30;91.60;;;;;;5011469;28;20969;-74
2022/12/06 01:32:21;;;;;;;39.53;24.30;;;4.20;89.00;;;;;;5010635;28;20468;-74
2022/12/06 01:34:50;;;;;;;38.73;23.53;;;4.10;90.00;;;;;;5011620;28;20420;-75
2022/12/06 01:37:16;;;;;;;38.45;23.35;;;4.10;91.10;;;;;;5011189;28;20750;-74
2022/12/06 01:39:43;;;;;;;39.28;23.73;;;4.10;91.00;;;;;;5011117;28;20381;-74
2022/12/06 01:42:13;;;;;;;33.75;22.08;;;4.00;91.30;;;;;;5010378;28;20738;-73
2022/12/06 01:45:00;;;;;;;38.88;22.90;;;4.30;89.10;;;;;;5010729;28;20846;-74
2022/12/06 01:47:34;;;;;;;36.35;21.77;;;4.20;84.90;;;;;;5010918;28;20418;-74
2022/12/06 01:50:24;;;;;;;37.80;23.33;;;4.10;87.00;;;;;;5010865;28;20427;-74
2022/12/06 01:53:04;;;;;;;43.10;24.63;;;4.00;88.30;;;;;;5010062;28;20789;-74
2022/12/06 01:55:35;;;;;;;38.60;23.80;;;3.90;90.10;;;;;;5010318;28;20451;-74
2022/12/06 01:58:08;;;;;;;38.88;24.63;;;3.90;92.00;;;;;;5010663;28;20385;-74
2022/12/06 02:00:34;;;;;;;49.90;27.60;;;3.80;92.40;;;;;;5009583;28;20890;-75
2022/12/06 02:03:01;;;;;;;42.47;25.17;;;3.80;94.00;;;;;;5010179;28;20401;-74
2022/12/06 02:05:28;;;;;;;40.67;25.08;;;3.80;95.20;;;;;;5010022;28;20762;-74
2022/12/06 02:07:55;;;;;;;45.65;24.88;;;3.80;95.90;;;;;;5010175;28;20393;-74
2022/12/06 02:10:21;;;;;;;41.63;24.03;;;3.80;95.90;;;;;;5010268;28;20811;-72
2022/12/06 02:12:53;;;;;;;40.75;23.35;;;3.80;96.10;;;;;;5009828;28;20396;-74
2022/12/06 02:15:29;;;;;;;43.20;24.90;;;3.90;96.20;;;;;;5010620;28;20401;-74
2022/12/06 02:18:12;;;;;;;43.72;24.75;;;3.90;95.10;;;;;;5010166;28;20399;-73
2022/12/06 02:20:48;;;;;;;45.58;25.52;;;3.90;95.70;;;;;;5009883;28;20408;-74
2022/12/06 02:23:45;;;;;;;47.88;26.20;;;3.90;95.00;;;;;;5009653;28;20456;-74
2022/12/06 02:26:21;;;;;;;52.28;27.25;;;3.90;95.30;;;;;;5010090;28;20413;-75
2022/12/06 02:29:20;;;;;;;43.58;24.70;;;3.80;95.40;;;;;;5009693;28;20392;-74
2022/12/06 02:31:54;;;;;;;47.75;26.40;;;3.80;96.30;;;;;;5002264;28;20396;-75
2022/12/06 02:34:43;;;;;;;44.67;26.30;;;3.80;96.70;;;;;;5010493;28;20467;-77
2022/12/06 02:37:15;;;;;;;49.60;25.98;;;3.80;97.90;;;;;;5010608;28;20401;-74
2022/12/06 02:39:56;;;;;;;46.35;26.40;;;3.80;97.50;;;;;;5012470;28;20435;-74
2022/12/06 02:42:31;;;;;;;44.92;25.40;;;3.90;97.70;;;;;;5008922;28;20471;-72
2022/12/06 02:45:07;;;;;;;46.25;27.80;;;3.90;98.10;;;;;;5008736;28;20404;-72
2022/12/06 02:47:35;;;;;;;52.22;27.67;;;3.90;97.70;;;;;;5010646;28;20488;-73
2022/12/06 02:50:06;;;;;;;48.05;26.65;;;4.00;95.30;;;;;;5010333;28;20389;-72
2022/12/06 02:52:33;;;;;;;48.58;26.13;;;3.90;95.70;;;;;;5009744;28;20385;-72
2022/12/06 02:55:00;;;;;;;49.40;27.75;;;3.90;96.10;;;;;;5010154;28;20393;-72
2022/12/06 02:57:47;;;;;;;48.00;27.42;;;3.90;95.60;;;;;;5010229;28;20396;-72
2022/12/06 03:00:34;;;;;;;57.85;27.30;;;3.90;96.50;;;;;;5010514;28;20393;-73
2022/12/06 03:03:05;;;;;;;53.08;26.80;;;3.90;97.90;;;;;;5053278;23;20436;-73
2022/12/06 03:05:44;;;;;;;56.85;28.35;;;3.90;96.20;;;;;;5043280;28;20403;-73
2022/12/06 03:08:22;;;;;;;61.80;29.75;;;3.80;96.80;;;;;;5041435;28;20387;-74
2022/12/06 03:10:56;;;;;;;61.13;29.50;;;3.80;98.50;;;;;;5030247;28;20755;-74
2022/12/06 03:13:32;;;;;;;56.10;28.47;;;3.90;99.00;;;;;;5010404;28;20396;-74
2022/12/06 03:16:04;;;;;;;56.55;30.00;;;3.90;99.20;;;;;;5010050;28;20416;-74
2022/12/06 03:19:00;;;;;;;48.97;27.30;;;3.90;99.50;;;;;;5010387;28;20399;-74
2022/12/06 03:21:43;;;;;;;53.38;29.50;;;3.90;99.90;;;;;;5009581;28;20483;-74
2022/12/06 03:24:13;;;;;;;55.88;28.23;;;3.90;99.90;;;;;;5009882;28;20389;-74
2022/12/06 03:26:40;;;;;;;51.45;28.25;;;4.00;99.90;;;;;;5010290;28;20408;-73
2022/12/06 03:29:09;;;;;;;51.53;28.90;;;4.00;99.90;;;;;;5010567;28;20420;-76
2022/12/06 03:31:37;;;;;;;53.80;29.00;;;4.00;99.90;;;;;;5010647;28;20511;-75
2022/12/06 03:34:30;;;;;;;65.38;32.03;;;4.00;99.90;;;;;;5008693;28;20392;-74
2022/12/06 03:36:58;;;;;;;54.33;30.70;;;3.90;99.90;;;;;;5012635;28;20457;-74
2022/12/06 03:39:43;;;;;;;67.68;31.75;;;4.00;99.90;;;;;;5013451;28;20389;-74
2022/12/06 03:42:09;;;;;;;70.72;32.60;;;3.90;99.90;;;;;;5013036;28;20400;-74
2022/12/06 03:44:35;;;;;;;56.50;31.40;;;3.90;99.90;;;;;;5013482;28;20492;-74
2022/12/06 03:47:14;;;;;;;59.13;30.30;;;3.90;99.90;;;;;;5014229;28;20892;-73
2022/12/06 03:50:00;;;;;;;57.15;30.92;;;3.90;99.90;;;;;;5019142;28;20392;-73
2022/12/06 03:52:28;;;;;;;68.77;31.03;;;4.10;99.90;;;;;;5017591;28;20757;-73
2022/12/06 03:54:54;;;;;;;56.95;29.27;;;4.20;99.90;;;;;;5017462;28;20369;-74
2022/12/06 03:57:20;;;;;;;50.75;27.98;;;4.20;99.90;;;;;;5015660;28;20718;-73
2022/12/06 03:59:46;;;;;;;58.72;30.77;;;4.10;99.90;;;;;;5015378;28;20828;-73
2022/12/06 04:02:11;;;;;;;61.67;31.13;;;4.10;99.90;;;;;;5025663;28;20389;-72
2022/12/06 04:04:37;;;;;;;59.97;31.50;;;4.00;99.90;;;;;;5026220;28;20385;-73
2022/12/06 04:07:02;;;;;;;59.47;31.40;;;3.90;99.90;;;;;;5014744;28;20912;-74
2022/12/06 04:14:56;;;;;;;64.63;31.38;;;3.90;99.90;;;;;;5013213;28;20388;-73
2022/12/06 04:20:06;;;;;;;67.57;32.38;;;4.00;99.90;;;;;;5015143;28;20511;-74
2022/12/06 04:25:16;;;;;;;56.65;30.23;;;4.00;99.90;;;;;;5017029;28;20471;-73
2022/12/06 04:38:41;;;;;;;60.75;30.83;;;4.20;99.90;;;;;;5013155;28;20391;-73
2022/12/06 04:41:07;;;;;;;69.13;31.90;;;4.10;99.90;;;;;;5012539;28;20454;-73
2022/12/06 04:43:41;;;;;;;60.70;30.88;;;4.10;99.90;;;;;;5012803;28;20483;-74
2022/12/06 04:46:08;;;;;;;55.60;28.95;;;4.10;99.90;;;;;;5012570;28;20437;-74
2022/12/06 04:48:34;;;;;;;57.67;30.25;;;4.20;99.90;;;;;;5011936;28;20707;-74
2022/12/06 04:50:59;;;;;;;70.77;32.87;;;4.20;99.90;;;;;;5012428;28;20384;-73
2022/12/06 04:53:25;;;;;;;57.93;31.00;;;4.20;99.90;;;;;;5012780;28;20388;-73
2022/12/06 04:55:51;;;;;;;60.93;30.93;;;4.20;99.90;;;;;;5011283;28;20393;-74
2022/12/06 04:58:17;;;;;;;72.40;32.78;;;4.30;99.90;;;;;;5011222;28;20397;-73
2022/12/06 05:00:43;;;;;;;67.47;31.58;;;4.40;99.90;;;;;;5012419;28;20393;-73
2022/12/06 05:03:13;;;;;;;68.60;31.48;;;4.20;99.50;;;;;;5011300;28;20849;-73
2022/12/06 05:05:40;;;;;;;67.20;32.47;;;4.30;99.90;;;;;;5011697;28;20423;-73
2022/12/06 05:08:05;;;;;;;60.20;31.40;;;4.30;99.20;;;;;;5012309;28;20724;-73
2022/12/06 05:10:31;;;;;;;60.63;30.38;;;4.20;99.30;;;;;;5012031;28;20475;-73
2022/12/06 05:12:57;;;;;;;65.03;31.90;;;4.20;99.70;;;;;;5011560;28;20885;-73
2022/12/06 05:15:23;;;;;;;68.95;33.03;;;4.20;99.90;;;;;;5026917;28;20392;-75
2022/12/06 05:17:48;;;;;;;65.15;31.63;;;4.10;99.90;;;;;;5011940;28;20396;-73
2022/12/06 05:20:14;;;;;;;65.15;32.20;;;4.20;99.90;;;;;;5011999;28;20399;-73
2022/12/06 05:22:40;;;;;;;67.60;31.95;;;4.20;99.90;;;;;;5018500;28;20409;-73
2022/12/06 05:25:06;;;;;;;79.03;34.50;;;4.10;99.90;;;;;;5017419;28;20405;-73
2022/12/06 05:27:32;;;;;;;62.35;31.95;;;4.20;99.90;;;;;;5015025;28;20384;-74
2022/12/06 05:29:57;;;;;;;63.97;32.63;;;4.20;99.90;;;;;;5011987;28;20389;-74
2022/12/06 05:32:23;;;;;;;63.30;32.37;;;4.30;99.90;;;;;;5010747;28;20395;-73
2022/12/06 05:34:49;;;;;;;74.50;33.90;;;4.30;99.90;;;;;;5011983;28;20877;-73
2022/12/06 05:37:14;;;;;;;68.87;32.97;;;4.40;99.90;;;;;;5011868;28;20399;-72
2022/12/06 05:39:40;;;;;;;69.65;34.00;;;4.40;99.90;;;;;;5011919;28;20389;-73
2022/12/06 05:42:05;;;;;;;70.60;33.70;;;4.40;99.90;;;;;;5011517;28;20389;-73
2022/12/06 05:44:31;;;;;;;67.07;30.75;;;4.40;99.90;;;;;;5013332;28;20391;-74
2022/12/06 05:46:56;;;;;;;73.85;33.50;;;4.40;99.90;;;;;;5014044;28;20400;-74
2022/12/06 05:49:22;;;;;;;62.28;31.38;;;4.50;99.90;;;;;;5017562;28;20394;-74
2022/12/06 05:51:47;;;;;;;69.38;32.42;;;4.50;99.90;;;;;;5024066;28;20511;-74
2022/12/06 05:54:13;;;;;;;66.90;32.53;;;4.50;99.90;;;;;;5013217;28;20381;-74
2022/12/06 05:56:39;;;;;;;68.22;32.53;;;4.50;99.90;;;;;;5012622;28;20392;-74
2022/12/06 05:59:04;;;;;;;69.68;32.65;;;4.60;99.90;;;;;;5011168;28;20703;-74
2022/12/06 06:01:30;;;;;;;70.72;32.35;;;4.50;99.90;;;;;;5010995;28;20861;-74
2022/12/06 06:03:57;;;;;;;76.82;32.53;;;4.50;99.90;;;;;;5010041;28;20759;-74
2022/12/06 06:06:23;;;;;;;63.37;32.90;;;4.50;99.90;;;;;;5011034;28;20458;-74
2022/12/06 06:08:49;;;;;;;75.80;33.60;;;4.50;99.90;;;;;;5011454;28;20447;-73
2022/12/06 06:11:14;;;;;;;66.17;33.40;;;4.50;99.90;;;;;;5010715;28;20380;-73
2022/12/06 06:13:40;;;;;;;61.77;31.53;;;4.50;99.90;;;;;;5011524;28;20921;-73
2022/12/06 06:16:06;;;;;;;62.72;32.53;;;4.50;99.90;;;;;;5011725;28;20397;-75
2022/12/06 06:18:32;;;;;;;57.30;30.97;;;4.60;99.90;;;;;;5010045;28;20778;-74
2022/12/06 06:20:59;;;;;;;71.57;34.33;;;4.60;99.70;;;;;;5011034;28;20400;-75
2022/12/06 06:23:25;;;;;;;63.42;32.45;;;4.60;99.40;;;;;;5009953;28;20403;-74
2022/12/06 06:25:51;;;;;;;67.65;33.95;;;4.50;99.70;;;;;;5011362;28;20885;-74
2022/12/06 06:28:17;;;;;;;67.90;33.30;;;4.50;99.90;;;;;;5011641;28;20395;-75
2022/12/06 06:30:43;;;;;;;66.60;34.37;;;4.50;99.90;;;;;;5010003;28;20945;-74
2022/12/06 06:33:09;;;;;;;74.32;33.08;;;4.40;99.90;;;;;;5010799;28;20392;-74
2022/12/06 06:35:35;;;;;;;63.67;32.27;;;4.50;99.90;;;;;;5011422;28;20567;-75
2022/12/06 06:38:01;;;;;;;74.15;33.83;;;4.50;99.90;;;;;;5011746;28;20408;-75
2022/12/06 06:40:27;;;;;;;65.23;33.20;;;4.60;99.90;;;;;;5011097;28;20514;-75
2022/12/06 06:42:54;;;;;;;74.10;34.60;;;4.60;99.90;;;;;;5023589;28;20395;-74
2022/12/06 06:45:19;;;;;;;70.50;32.92;;;4.60;99.90;;;;;;5030570;28;20404;-73
2022/12/06 06:47:45;;;;;;;75.03;33.77;;;4.70;99.90;;;;;;5025777;28;20416;-75
2022/12/06 06:50:11;;;;;;;74.07;34.77;;;4.70;99.90;;;;;;5026022;28;20420;-74
2022/12/06 06:52:36;;;;;;;68.10;33.83;;;4.70;99.20;;;;;;5014734;28;20546;-75
2022/12/06 06:55:02;;;;;;;63.97;33.17;;;4.60;99.90;;;;;;5021474;28;20393;-73
2022/12/06 06:57:28;;;;;;;64.75;30.60;;;4.60;99.90;;;;;;5020617;28;20388;-73
2022/12/06 06:59:55;;;;;;;71.93;32.73;;;4.60;99.90;;;;;;5022140;28;21028;-74
2022/12/06 07:02:20;;;;;;;63.72;30.75;;;4.70;99.90;;;;;;5025267;28;20407;-74
2022/12/06 07:04:46;;;;;;;59.75;30.85;;;4.70;99.90;;;;;;5022939;28;20393;-74
2022/12/06 07:07:12;;;;;;;65.32;31.05;;;4.70;99.90;;;;;;5017410;28;20448;-73
2022/12/06 07:09:38;;;;;;;70.80;32.75;;;4.70;99.90;;;;;;5016356;28;20885;-74
2022/12/06 07:12:04;;;;;;;60.47;31.23;;;4.70;99.90;;;;;;5013710;28;20849;-74
2022/12/06 07:14:29;;;;;;;57.55;30.98;;;4.80;99.90;;;;;;5014721;28;20400;-75
2022/12/06 07:16:55;;;;;;;67.47;32.83;;;4.80;99.90;;;;;;5013370;28;20959;-74
2022/12/06 07:19:20;;;;;;;60.97;31.40;;;4.90;99.60;;;;;;5014841;28;20424;-74
2022/12/06 07:21:46;;;;;;;71.70;33.17;;;4.90;99.20;;;;;;5014147;28;20450;-75
2022/12/06 07:24:12;;;;;;;66.73;34.53;;;4.90;99.40;;;;;;5015022;28;20392;-75
2022/12/06 07:26:37;;;;;;;69.17;32.87;;;4.90;99.90;;;;;;5014849;28;20430;-75
2022/12/06 07:29:03;;;;;;;65.00;32.37;;;4.90;99.90;;;;;;5015923;28;20396;-74
2022/12/06 07:31:29;;;;;;;56.50;30.90;;;4.90;99.90;;;;;;5028868;28;20396;-73
2022/12/06 07:33:57;;;;;;;57.78;29.15;;;5.00;99.70;;;;;;5014800;28;20397;-73
2022/12/06 07:36:24;;;;;;;57.25;30.98;;;5.00;99.20;;;;;;5013982;28;20393;-73
2022/12/06 07:38:52;;;;;;;65.28;32.38;;;4.90;99.30;;;;;;5014600;28;20515;-73
2022/12/06 07:46:48;;;;;;;51.33;28.83;;;5.00;99.10;;;;;;5014895;28;20405;-73
2022/12/06 07:49:15;;;;;;;63.65;32.70;;;5.00;99.00;;;;;;5014377;28;20384;-74
2022/12/06 07:51:42;;;;;;;60.60;30.88;;;5.00;98.90;;;;;;5014224;28;20381;-75
2022/12/06 07:54:08;;;;;;;56.20;29.73;;;5.00;98.70;;;;;;5015306;28;20746;-74
2022/12/06 07:56:33;;;;;;;57.53;31.25;;;5.00;98.50;;;;;;5014997;28;20400;-73
2022/12/06 07:59:00;;;;;;;57.65;30.70;;;5.00;98.50;;;;;;5014974;28;20420;-74
2022/12/06 08:01:25;;;;;;;65.55;33.08;;;5.00;98.30;;;;;;5014291;28;20397;-73
2022/12/06 08:03:52;;;;;;;67.80;31.67;;;5.00;98.30;;;;;;5013712;28;20396;-74
2022/12/06 08:06:18;;;;;;;59.95;31.60;;;5.00;98.00;;;;;;5013364;28;20462;-74
2022/12/06 08:08:43;;;;;;;60.90;31.70;;;5.00;99.10;;;;;;5013678;28;20804;-75
2022/12/06 08:11:09;;;;;;;56.57;30.53;;;5.00;98.90;;;;;;5012908;28;20491;-74
2022/12/06 08:13:35;;;;;;;56.77;29.83;;;5.00;99.20;;;;;;5012045;28;20462;-74
2022/12/06 08:16:11;;;;;;;62.60;29.90;;;5.10;99.30;;;;;;5013865;28;20393;-74
2022/12/06 08:18:38;;;;;;;61.30;31.48;;;5.30;98.40;;;;;;5013743;28;20400;-73
2022/12/06 08:21:03;;;;;;;54.40;29.25;;;5.30;97.50;;;;;;5012419;28;20397;-73
2022/12/06 08:23:29;;;;;;;53.88;28.25;;;5.40;97.20;;;;;;5013955;28;20412;-73
2022/12/06 08:26:03;;;;;;;57.28;30.23;;;5.40;96.80;;;;;;5015916;28;20405;-73
2022/12/06 08:28:29;;;;;;;61.90;29.58;;;5.40;96.60;;;;;;5023324;28;20382;-73
2022/12/06 08:30:55;;;;;;;58.67;30.17;;;5.40;96.10;;;;;;5018042;28;20727;-73
2022/12/06 08:33:21;;;;;;;52.70;28.52;;;5.50;97.30;;;;;;5015853;28;20392;-73
2022/12/06 08:35:48;;;;;;;55.67;30.00;;;5.50;97.00;;;;;;5012873;28;20396;-73
2022/12/06 08:38:13;;;;;;;47.57;27.43;;;5.50;97.40;;;;;;5014047;28;20761;-74
2022/12/06 08:40:39;;;;;;;52.45;27.52;;;5.60;97.30;;;;;;5012945;28;20400;-73
2022/12/06 08:43:05;;;;;;;49.90;27.13;;;5.70;98.40;;;;;;5022848;28;20408;-73
2022/12/06 08:45:31;;;;;;;46.60;24.45;;;5.70;98.80;;;;;;5023518;28;20426;-75
2022/12/06 08:47:57;;;;;;;50.58;25.60;;;5.90;98.70;;;;;;5013776;28;20384;-75
2022/12/06 08:50:22;;;;;;;45.20;24.00;;;5.90;97.80;;;;;;5012992;28;20493;-74
2022/12/06 08:52:48;;;;;;;36.60;21.88;;;6.10;98.60;;;;;;5012737;28;20377;-74
2022/12/06 08:55:13;;;;;;;39.20;22.27;;;6.50;90.90;;;;;;5011750;28;20396;-74
2022/12/06 08:57:39;;;;;;;41.08;22.33;;;6.60;88.00;;;;;;5011609;28;20467;-73
2022/12/06 09:00:06;;;;;;;28.55;17.05;;;6.80;85.90;;;;;;5013809;28;20377;-74
2022/12/06 09:02:32;;;;;;;32.03;18.13;;;6.80;84.10;;;;;;5034280;23;20437;-71
2022/12/06 09:04:57;;;;;;;24.97;15.67;;;6.80;85.20;;;;;;5012291;28;20739;-72
2022/12/06 09:07:25;;;;;;;23.33;14.70;;;6.80;86.10;;;;;;5011942;28;20397;-72
2022/12/06 09:09:52;;;;;;;23.92;15.40;;;6.70;87.60;;;;;;5011344;28;20389;-72
2022/12/06 09:12:18;;;;;;;26.00;15.85;;;6.70;89.60;;;;;;5011033;28;20403;-72
2022/12/06 09:14:43;;;;;;;24.70;14.00;;;6.70;90.50;;;;;;5011520;28;20385;-72
2022/12/06 09:17:09;;;;;;;29.50;16.17;;;6.60;91.40;;;;;;5011579;28;20393;-72
2022/12/06 09:19:35;;;;;;;27.57;15.27;;;6.60;92.20;;;;;;5011640;28;20402;-73
2022/12/06 09:22:00;;;;;;;30.90;15.70;;;6.70;93.10;;;;;;5010696;28;20396;-73
2022/12/06 09:24:26;;;;;;;29.52;15.90;;;6.70;91.60;;;;;;5011370;28;20414;-73
2022/12/06 09:26:52;;;;;;;29.05;16.33;;;6.80;93.50;;;;;;5011458;28;20408;-72
2022/12/06 09:29:18;;;;;;;24.83;13.98;;;6.80;94.10;;;;;;5011242;28;20389;-73
2022/12/06 09:31:44;;;;;;;24.67;14.68;;;6.90;87.80;;;;;;5011427;28;20385;-74
2022/12/06 09:34:11;;;;;;;23.10;14.27;;;6.80;87.20;;;;;;5010857;28;20392;-72
2022/12/06 09:36:57;;;;;;;21.23;12.70;;;6.80;87.20;;;;;;5011925;28;20404;-72
2022/12/06 09:39:30;;;;;;;23.63;12.93;;;6.80;85.90;;;;;;5011454;28;20389;-73
2022/12/06 09:42:14;;;;;;;26.52;13.40;;;6.80;86.60;;;;;;5010400;28;20460;-72
2022/12/06 09:45:03;;;;;;;23.73;13.30;;;6.70;86.50;;;;;;5010933;28;20385;-72
2022/12/06 09:47:44;;;;;;;24.90;12.93;;;6.70;86.50;;;;;;5011062;28;20394;-72
2022/12/06 09:50:47;;;;;;;24.83;14.50;;;6.70;86.70;;;;;;5010927;28;20709;-72
2022/12/06 09:53:25;;;;;;;24.00;13.57;;;6.70;89.30;;;;;;5010623;28;20388;-73
2022/12/06 09:56:03;;;;;;;22.20;13.98;;;6.70;87.30;;;;;;5010993;28;20833;-72
2022/12/06 09:58:47;;;;;;;20.90;13.32;;;6.70;88.30;;;;;;5010674;28;20437;-73
2022/12/06 10:01:37;;;;;;;22.98;13.70;;;6.70;88.00;;;;;;5010031;28;20426;-73
2022/12/06 10:04:44;;;;;;;27.30;14.57;;;6.70;88.70;;;;;;5010532;28;20438;-72
2022/12/06 10:07:37;;;;;;;23.45;13.80;;;6.70;87.80;;;;;;5010698;28;20444;-72
2022/12/06 10:10:05;;;;;;;23.13;12.60;;;6.70;87.00;;;;;;5011151;28;20392;-72
2022/12/06 10:12:52;;;;;;;19.85;12.57;;;6.70;86.70;;;;;;5009859;28;20384;-72
2022/12/06 10:15:31;;;;;;;20.20;12.05;;;6.80;85.30;;;;;;5010470;28;20459;-73
2022/12/06 10:18:20;;;;;;;21.45;13.20;;;6.70;85.30;;;;;;5010697;28;20384;-72
2022/12/06 10:21:14;;;;;;;20.92;13.65;;;6.70;84.80;;;;;;5011111;28;20895;-72
2022/12/06 10:23:55;;;;;;;18.42;12.65;;;6.70;88.00;;;;;;5010842;28;20877;-72
2022/12/06 10:26:37;;;;;;;20.23;12.20;;;6.70;88.30;;;;;;5010269;28;20815;-72
2022/12/06 10:29:12;;;;;;;22.30;13.07;;;6.70;87.70;;;;;;5010981;28;20458;-73
2022/12/06 10:31:46;;;;;;;20.60;13.10;;;6.70;88.20;;;;;;5010021;28;20454;-73
2022/12/06 10:34:30;;;;;;;25.95;13.98;;;6.70;89.20;;;;;;5010444;28;20877;-74
2022/12/06 10:37:34;;;;;;;21.65;13.40;;;6.70;88.80;;;;;;5010323;28;20381;-72
2022/12/06 10:40:11;;;;;;;22.83;13.35;;;6.70;86.00;;;;;;5010356;28;20399;-71
2022/12/06 10:42:42;;;;;;;21.40;13.40;;;6.70;86.80;;;;;;5009540;28;20907;-71
2022/12/06 10:48:56;;;;;;;25.83;14.00;;;6.70;86.30;;;;;;5009702;28;20872;-72
2022/12/06 10:51:38;;;;;;;20.85;13.10;;;6.80;86.90;;;;;;5010500;28;20422;-73
2022/12/06 10:54:17;;;;;;;18.23;11.00;;;7.00;84.50;;;;;;5009974;28;20388;-73
2022/12/06 10:56:44;;;;;;;19.80;12.40;;;7.10;80.10;;;;;;5010146;28;20396;-74
2022/12/06 10:59:26;;;;;;;18.83;11.40;;;7.30;82.00;;;;;;5010403;28;20391;-73
2022/12/06 11:01:55;;;;;;;21.60;12.07;;;7.30;77.70;;;;;;5009657;28;20424;-74
2022/12/06 11:04:35;;;;;;;20.35;12.50;;;7.40;79.10;;;;;;5010220;28;20396;-73
2022/12/06 11:07:12;;;;;;;18.85;11.35;;;7.40;78.30;;;;;;5010599;28;20412;-72
2022/12/06 11:09:42;;;;;;;16.20;11.18;;;7.60;75.60;;;;;;5010035;28;20439;-73
2022/12/06 11:12:19;;;;;;;23.60;11.70;;;7.50;73.90;;;;;;5009537;28;20380;-72
2022/12/06 11:14:50;;;;;;;16.60;11.40;;;7.60;74.30;;;;;;5009967;28;20736;-73
2022/12/06 11:17:23;;;;;;;24.15;11.52;;;7.50;74.90;;;;;;5010309;28;20947;-72
2022/12/06 11:19:58;;;;;;;20.25;11.48;;;7.40;75.50;;;;;;5010250;28;20403;-72
2022/12/06 11:23:06;;;;;;;21.40;12.40;;;7.20;76.60;;;;;;5009588;28;20393;-72
2022/12/06 11:25:31;;;;;;;17.17;10.88;;;7.30;80.10;;;;;;5008260;28;20495;-72
2022/12/06 11:28:10;;;;;;;22.07;12.70;;;7.40;76.30;;;;;;5009517;28;20552;-72
2022/12/06 11:30:36;;;;;;;15.50;10.02;;;7.50;78.20;;;;;;5009869;28;20392;-71
2022/12/06 11:33:03;;;;;;;20.47;11.00;;;7.40;74.80;;;;;;5006982;28;20447;-72
2022/12/06 11:35:29;;;;;;;15.98;10.98;;;7.40;75.80;;;;;;5010761;28;20392;-73
2022/12/06 11:38:00;;;;;;;18.35;10.13;;;7.30;75.70;;;;;;5010741;28;20388;-73
2022/12/06 11:40:31;;;;;;;14.23;9.85;;;7.40;76.20;;;;;;5016629;28;20492;-74
2022/12/06 11:43:01;;;;;;;16.17;10.23;;;7.20;74.50;;;;;;5010567;28;20528;-75
2022/12/06 11:45:31;;;;;;;15.18;9.25;;;7.20;76.60;;;;;;5009241;28;20463;-74
2022/12/06 11:47:58;;;;;;;14.75;9.75;;;7.10;77.30;;;;;;5010529;28;20907;-74
2022/12/06 11:50:27;;;;;;;16.83;9.73;;;7.10;77.80;;;;;;5011234;28;20380;-74
2022/12/06 11:53:01;;;;;;;11.87;8.43;;;7.10;79.00;;;;;;5011256;28;20384;-75
2022/12/06 11:55:33;;;;;;;13.52;7.90;;;7.10;78.20;;;;;;5010050;28;20404;-75
2022/12/06 11:58:15;;;;;;;12.65;8.43;;;7.00;75.70;;;;;;5003047;28;20434;-75
2022/12/06 12:01:01;;;;;;;11.45;8.73;;;7.00;78.50;;;;;;5013755;28;20450;-74
2022/12/06 12:03:33;;;;;;;16.23;10.20;;;7.00;78.90;;;;;;4995570;28;20909;-74
2022/12/06 12:06:22;;;;;;;16.77;9.10;;;7.10;81.70;;;;;;5006934;28;20412;-73
2022/12/06 12:08:56;;;;;;;11.55;8.07;;;7.20;72.80;;;;;;5007611;28;20472;-73
2022/12/06 12:11:26;;;;;;;15.45;8.40;;;7.10;73.70;;;;;;5011745;28;20384;-74
2022/12/06 12:14:04;;;;;;;13.40;8.60;;;7.20;76.00;;;;;;5012634;28;20468;-74
2022/12/06 12:16:42;;;;;;;13.37;8.10;;;7.30;75.50;;;;;;5012830;28;20502;-75
2022/12/06 12:19:40;;;;;;;15.10;9.98;;;7.40;74.00;;;;;;5011431;28;20476;-75
2022/12/06 12:22:28;;;;;;;19.52;8.00;;;7.40;74.30;;;;;;5012531;28;20412;-74
2022/12/06 12:25:21;;;;;;;11.80;7.73;;;7.60;67.70;;;;;;5014709;28;20444;-74
2022/12/06 12:27:49;;;;;;;11.30;7.78;;;7.60;68.70;;;;;;5013304;28;20396;-74
2022/12/06 12:30:25;;;;;;;11.90;7.78;;;7.60;70.00;;;;;;5012379;28;20471;-72
2022/12/06 12:33:08;;;;;;;11.13;7.40;;;7.60;69.90;;;;;;5012521;28;20773;-72
2022/12/06 12:35:47;;;;;;;12.02;7.07;;;7.40;68.80;;;;;;5012781;28;20424;-72
2022/12/06 12:38:22;;;;;;;10.00;6.50;;;7.30;70.10;;;;;;5014365;28;20408;-73
2022/12/06 12:41:00;;;;;;;11.43;7.30;;;7.20;69.80;;;;;;5013300;28;20392;-73
2022/12/06 12:43:29;;;;;;;11.05;7.28;;;7.30;70.10;;;;;;5012713;28;20408;-74
2022/12/06 12:46:06;;;;;;;10.55;6.72;;;7.40;70.80;;;;;;5013058;28;20765;-72
2022/12/06 12:48:33;;;;;;;8.20;6.20;;;7.40;67.20;;;;;;5012297;28;20432;-72
2022/12/06 12:51:03;;;;;;;11.85;6.30;;;7.40;66.30;;;;;;5012740;28;20768;-73
2022/12/06 12:53:40;;;;;;;9.55;5.82;;;7.30;67.20;;;;;;5012120;28;20408;-72
2022/12/06 12:56:18;;;;;;;9.93;6.03;;;7.10;67.00;;;;;;5012960;28;20819;-73
2022/12/06 12:58:46;;;;;;;12.48;6.20;;;7.00;66.40;;;;;;5011963;28;20449;-72
2022/12/06 13:01:23;;;;;;;7.25;5.40;;;6.90;68.30;;;;;;5011230;28;20408;-72
2022/12/06 13:04:04;;;;;;;9.02;5.97;;;6.70;67.60;;;;;;5010786;28;20453;-73
2022/12/06 13:06:42;;;;;;;10.55;7.18;;;6.60;70.60;;;;;;5012135;28;20765;-74
2022/12/06 13:09:18;;;;;;;8.85;6.03;;;6.60;72.90;;;;;;5011124;28;20483;-73
2022/12/06 13:11:51;;;;;;;9.45;6.55;;;6.50;72.30;;;;;;5011673;28;20381;-72
2022/12/06 13:14:21;;;;;;;11.13;7.50;;;6.50;73.60;;;;;;5012218;28;20936;-73
2022/12/06 13:16:50;;;;;;;12.57;6.60;;;6.50;73.00;;;;;;5011564;28;20761;-72
2022/12/06 13:19:17;;;;;;;12.27;7.03;;;6.40;72.00;;;;;;5011839;28;20492;-73
2022/12/06 13:21:44;;;;;;;12.10;7.40;;;6.50;73.20;;;;;;5010901;28;20396;-72
2022/12/06 13:24:09;;;;;;;12.73;8.30;;;6.50;73.40;;;;;;5011098;28;20415;-71
2022/12/06 13:27:12;;;;;;;10.65;7.40;;;6.60;73.00;;;;;;5011405;28;20893;-73
2022/12/06 13:29:46;;;;;;;12.40;8.40;;;6.60;74.00;;;;;;4989972;28;20455;-73